sensor_id;sensor_type;location;lat;lon;timestamp;temperature;humidity
921;DHT22;447;51.332;6.778;2024-03-08T00:00:24;10.20;94.70
921;DHT22;447;51.332;6.778;2024-03-08T00:02:50;10.20;94.80
921;DHT22;447;51.332;6.778;2024-03-08T00:05:20;10.20;94.90
921;DHT22;447;51.332;6.778;2024-03-08T00:07:50;10.20;94.90
921;DHT22;447;51.332;6.778;2024-03-08T00:10:16;10.20;94.90
921;DHT22;447;51.332;6.778;2024-03-08T00:12:44;10.20;95.00
921;DHT22;447;51.332;6.778;2024-03-08T00:15:12;10.20;95.30
921;DHT22;447;51.332;6.778;2024-03-08T00:17:40;10.20;95.10
921;DHT22;447;51.332;6.778;2024-03-08T00:20:07;10.20;95.10
921;DHT22;447;51.332;6.778;2024-03-08T00:22:38;10.20;95.00
921;DHT22;447;51.332;6.778;2024-03-08T00:25:07;10.10;95.00
921;DHT22;447;51.332;6.778;2024-03-08T00:27:34;10.10;95.00
921;DHT22;447;51.332;6.778;2024-03-08T00:30:02;10.10;95.00
921;DHT22;447;51.332;6.778;2024-03-08T00:32:33;10.10;95.00
921;DHT22;447;51.332;6.778;2024-03-08T00:35:02;10.10;95.30
921;DHT22;447;51.332;6.778;2024-03-08T00:37:28;10.10;95.00
921;DHT22;447;51.332;6.778;2024-03-08T00:39:54;10.10;95.00
921;DHT22;447;51.332;6.778;2024-03-08T00:42:20;10.10;95.00
921;DHT22;447;51.332;6.778;2024-03-08T00:44:47;10.10;95.10
921;DHT22;447;51.332;6.778;2024-03-08T00:47:13;10.00;95.00
921;DHT22;447;51.332;6.778;2024-03-08T00:49:41;10.10;95.10
921;DHT22;447;51.332;6.778;2024-03-08T00:52:08;10.00;95.00
921;DHT22;447;51.332;6.778;2024-03-08T00:54:34;10.00;95.00
921;DHT22;447;51.332;6.778;2024-03-08T00:57:02;10.00;95.10
921;DHT22;447;51.332;6.778;2024-03-08T00:59:29;10.00;95.00
921;DHT22;447;51.332;6.778;2024-03-08T01:02:01;10.00;95.10
921;DHT22;447;51.332;6.778;2024-03-08T01:04:28;10.00;95.10
921;DHT22;447;51.332;6.778;2024-03-08T01:06:57;10.00;95.10
921;DHT22;447;51.332;6.778;2024-03-08T01:09:24;10.00;95.10
921;DHT22;447;51.332;6.778;2024-03-08T01:11:53;9.90;95.90
921;DHT22;447;51.332;6.778;2024-03-08T01:14:23;9.90;95.60
921;DHT22;447;51.332;6.778;2024-03-08T01:16:51;9.90;95.60
921;DHT22;447;51.332;6.778;2024-03-08T01:19:17;9.90;95.60
921;DHT22;447;51.332;6.778;2024-03-08T01:21:46;9.90;95.60
921;DHT22;447;51.332;6.778;2024-03-08T01:24:14;9.90;95.60
921;DHT22;447;51.332;6.778;2024-03-08T01:26:43;9.90;95.50
921;DHT22;447;51.332;6.778;2024-03-08T01:29:09;9.90;95.60
921;DHT22;447;51.332;6.778;2024-03-08T01:31:38;9.90;95.60
921;DHT22;447;51.332;6.778;2024-03-08T01:34:04;9.90;95.60
921;DHT22;447;51.332;6.778;2024-03-08T01:36:32;9.80;95.50
921;DHT22;447;51.332;6.778;2024-03-08T01:38:58;9.80;95.50
921;DHT22;447;51.332;6.778;2024-03-08T01:41:24;9.80;95.50
921;DHT22;447;51.332;6.778;2024-03-08T01:43:50;9.80;95.50
921;DHT22;447;51.332;6.778;2024-03-08T01:46:19;9.80;95.40
921;DHT22;447;51.332;6.778;2024-03-08T01:48:48;9.80;95.40
921;DHT22;447;51.332;6.778;2024-03-08T01:51:15;9.80;95.40
921;DHT22;447;51.332;6.778;2024-03-08T01:53:43;9.80;95.40
921;DHT22;447;51.332;6.778;2024-03-08T01:56:11;9.80;95.40
921;DHT22;447;51.332;6.778;2024-03-08T01:58:41;9.80;95.40
921;DHT22;447;51.332;6.778;2024-03-08T02:01:12;9.80;95.40
921;DHT22;447;51.332;6.778;2024-03-08T02:03:44;9.70;95.30
921;DHT22;447;51.332;6.778;2024-03-08T02:06:13;9.70;95.30
921;DHT22;447;51.332;6.778;2024-03-08T02:08:48;9.70;95.30
921;DHT22;447;51.332;6.778;2024-03-08T02:11:19;9.70;95.30
921;DHT22;447;51.332;6.778;2024-03-08T02:13:48;9.70;95.30
921;DHT22;447;51.332;6.778;2024-03-08T02:16:20;9.70;95.30
921;DHT22;447;51.332;6.778;2024-03-08T02:18:49;9.70;95.30
921;DHT22;447;51.332;6.778;2024-03-08T02:21:17;9.70;95.30
921;DHT22;447;51.332;6.778;2024-03-08T02:23:47;9.70;95.30
921;DHT22;447;51.332;6.778;2024-03-08T02:26:13;9.60;95.20
921;DHT22;447;51.332;6.778;2024-03-08T02:28:39;9.60;95.20
921;DHT22;447;51.332;6.778;2024-03-08T02:31:05;9.60;95.20
921;DHT22;447;51.332;6.778;2024-03-08T02:33:34;9.60;95.20
921;DHT22;447;51.332;6.778;2024-03-08T02:36:00;9.60;95.20
921;DHT22;447;51.332;6.778;2024-03-08T02:38:28;9.60;95.20
921;DHT22;447;51.332;6.778;2024-03-08T02:40:57;9.60;95.20
921;DHT22;447;51.332;6.778;2024-03-08T02:43:26;9.60;95.20
921;DHT22;447;51.332;6.778;2024-03-08T02:45:54;9.50;95.10
921;DHT22;447;51.332;6.778;2024-03-08T02:48:20;9.50;95.10
921;DHT22;447;51.332;6.778;2024-03-08T02:50:53;9.50;95.10
921;DHT22;447;51.332;6.778;2024-03-08T02:53:19;9.50;95.20
921;DHT22;447;51.332;6.778;2024-03-08T02:55:47;9.50;95.10
921;DHT22;447;51.332;6.778;2024-03-08T02:58:16;9.50;95.10
921;DHT22;447;51.332;6.778;2024-03-08T03:00:42;9.50;95.10
921;DHT22;447;51.332;6.778;2024-03-08T03:03:13;9.50;95.10
921;DHT22;447;51.332;6.778;2024-03-08T03:05:39;9.40;95.10
921;DHT22;447;51.332;6.778;2024-03-08T03:08:09;9.50;95.10
921;DHT22;447;51.332;6.778;2024-03-08T03:10:37;9.40;95.10
921;DHT22;447;51.332;6.778;2024-03-08T03:13:03;9.40;95.10
921;DHT22;447;51.332;6.778;2024-03-08T03:15:30;9.40;95.10
921;DHT22;447;51.332;6.778;2024-03-08T03:18:01;9.40;95.10
921;DHT22;447;51.332;6.778;2024-03-08T03:20:27;9.40;95.10
921;DHT22;447;51.332;6.778;2024-03-08T03:22:59;9.40;95.10
921;DHT22;447;51.332;6.778;2024-03-08T03:25:29;9.40;95.10
921;DHT22;447;51.332;6.778;2024-03-08T03:27:59;9.30;95.00
921;DHT22;447;51.332;6.778;2024-03-08T03:30:26;9.30;95.00
921;DHT22;447;51.332;6.778;2024-03-08T03:32:53;9.30;95.00
921;DHT22;447;51.332;6.778;2024-03-08T03:35:21;9.30;94.90
921;DHT22;447;51.332;6.778;2024-03-08T03:37:48;9.30;94.90
921;DHT22;447;51.332;6.778;2024-03-08T03:40:28;9.30;94.90
921;DHT22;447;51.332;6.778;2024-03-08T03:42:55;9.30;95.00
921;DHT22;447;51.332;6.778;2024-03-08T03:45:26;9.30;94.90
921;DHT22;447;51.332;6.778;2024-03-08T03:47:52;9.30;95.00
921;DHT22;447;51.332;6.778;2024-03-08T03:50:18;9.20;94.90
921;DHT22;447;51.332;6.778;2024-03-08T03:52:53;9.30;94.90
921;DHT22;447;51.332;6.778;2024-03-08T03:55:19;9.20;94.90
921;DHT22;447;51.332;6.778;2024-03-08T03:57:45;9.20;94.90
921;DHT22;447;51.332;6.778;2024-03-08T04:00:14;9.20;94.90
921;DHT22;447;51.332;6.778;2024-03-08T04:02:41;9.20;94.90
921;DHT22;447;51.332;6.778;2024-03-08T04:05:13;9.20;94.90
921;DHT22;447;51.332;6.778;2024-03-08T04:07:41;9.20;94.90
921;DHT22;447;51.332;6.778;2024-03-08T04:10:11;9.20;94.90
921;DHT22;447;51.332;6.778;2024-03-08T04:12:40;9.20;94.90
921;DHT22;447;51.332;6.778;2024-03-08T04:15:06;9.10;94.80
921;DHT22;447;51.332;6.778;2024-03-08T04:17:34;9.10;94.80
921;DHT22;447;51.332;6.778;2024-03-08T04:20:06;9.10;94.80
921;DHT22;447;51.332;6.778;2024-03-08T04:22:40;9.10;94.80
921;DHT22;447;51.332;6.778;2024-03-08T04:25:06;9.10;94.80
921;DHT22;447;51.332;6.778;2024-03-08T04:27:38;9.10;94.90
921;DHT22;447;51.332;6.778;2024-03-08T04:30:05;9.10;94.90
921;DHT22;447;51.332;6.778;2024-03-08T04:32:33;9.10;94.80
921;DHT22;447;51.332;6.778;2024-03-08T04:35:00;9.10;94.80
921;DHT22;447;51.332;6.778;2024-03-08T04:37:27;9.10;94.80
921;DHT22;447;51.332;6.778;2024-03-08T04:39:55;9.00;94.80
921;DHT22;447;51.332;6.778;2024-03-08T04:42:22;9.00;94.80
921;DHT22;447;51.332;6.778;2024-03-08T04:44:48;9.00;94.80
921;DHT22;447;51.332;6.778;2024-03-08T04:47:14;9.00;94.80
921;DHT22;447;51.332;6.778;2024-03-08T04:49:42;9.00;94.90
921;DHT22;447;51.332;6.778;2024-03-08T04:52:12;9.00;94.80
921;DHT22;447;51.332;6.778;2024-03-08T04:54:38;9.00;94.80
921;DHT22;447;51.332;6.778;2024-03-08T04:57:05;8.90;94.80
921;DHT22;447;51.332;6.778;2024-03-08T04:59:31;8.90;94.80
921;DHT22;447;51.332;6.778;2024-03-08T05:01:57;8.90;94.80
921;DHT22;447;51.332;6.778;2024-03-08T05:04:23;8.90;94.80
921;DHT22;447;51.332;6.778;2024-03-08T05:06:51;8.90;94.80
921;DHT22;447;51.332;6.778;2024-03-08T05:09:19;8.90;94.80
921;DHT22;447;51.332;6.778;2024-03-08T05:11:48;8.90;94.80
921;DHT22;447;51.332;6.778;2024-03-08T05:14:14;8.90;94.80
921;DHT22;447;51.332;6.778;2024-03-08T05:16:46;8.90;94.80
921;DHT22;447;51.332;6.778;2024-03-08T05:19:16;8.90;94.80
921;DHT22;447;51.332;6.778;2024-03-08T05:21:46;8.90;94.80
921;DHT22;447;51.332;6.778;2024-03-08T05:24:18;8.80;94.80
921;DHT22;447;51.332;6.778;2024-03-08T05:26:45;8.80;94.80
921;DHT22;447;51.332;6.778;2024-03-08T05:29:11;8.80;94.80
921;DHT22;447;51.332;6.778;2024-03-08T05:31:50;8.80;94.80
921;DHT22;447;51.332;6.778;2024-03-08T05:34:22;8.80;94.80
921;DHT22;447;51.332;6.778;2024-03-08T05:36:50;8.80;94.80
921;DHT22;447;51.332;6.778;2024-03-08T05:39:17;8.80;94.80
921;DHT22;447;51.332;6.778;2024-03-08T05:41:46;8.80;94.80
921;DHT22;447;51.332;6.778;2024-03-08T05:44:15;8.80;94.80
921;DHT22;447;51.332;6.778;2024-03-08T05:46:43;8.70;94.80
921;DHT22;447;51.332;6.778;2024-03-08T05:49:09;8.80;94.80
921;DHT22;447;51.332;6.778;2024-03-08T05:51:40;8.70;94.80
921;DHT22;447;51.332;6.778;2024-03-08T05:54:08;8.70;94.80
921;DHT22;447;51.332;6.778;2024-03-08T05:56:39;8.70;94.70
921;DHT22;447;51.332;6.778;2024-03-08T05:59:10;8.70;94.80
921;DHT22;447;51.332;6.778;2024-03-08T06:01:36;8.70;94.80
921;DHT22;447;51.332;6.778;2024-03-08T06:04:07;8.70;94.80
921;DHT22;447;51.332;6.778;2024-03-08T06:06:33;8.70;94.80
921;DHT22;447;51.332;6.778;2024-03-08T06:08:59;8.60;94.70
921;DHT22;447;51.332;6.778;2024-03-08T06:11:26;8.60;94.70
921;DHT22;447;51.332;6.778;2024-03-08T06:13:57;8.70;94.80
921;DHT22;447;51.332;6.778;2024-03-08T06:16:29;8.60;94.70
921;DHT22;447;51.332;6.778;2024-03-08T06:18:56;8.60;94.70
921;DHT22;447;51.332;6.778;2024-03-08T06:21:27;8.60;94.80
921;DHT22;447;51.332;6.778;2024-03-08T06:23:56;8.60;94.80
921;DHT22;447;51.332;6.778;2024-03-08T06:26:24;8.60;94.70
921;DHT22;447;51.332;6.778;2024-03-08T06:28:53;8.60;95.10
921;DHT22;447;51.332;6.778;2024-03-08T06:31:19;8.60;94.70
921;DHT22;447;51.332;6.778;2024-03-08T06:33:46;8.60;94.70
921;DHT22;447;51.332;6.778;2024-03-08T06:36:12;8.50;94.70
921;DHT22;447;51.332;6.778;2024-03-08T06:38:40;8.50;94.70
921;DHT22;447;51.332;6.778;2024-03-08T06:41:11;8.50;94.70
921;DHT22;447;51.332;6.778;2024-03-08T06:43:45;8.50;94.70
921;DHT22;447;51.332;6.778;2024-03-08T06:46:12;8.50;94.70
921;DHT22;447;51.332;6.778;2024-03-08T06:48:44;8.50;94.80
921;DHT22;447;51.332;6.778;2024-03-08T06:51:14;8.50;94.80
921;DHT22;447;51.332;6.778;2024-03-08T06:53:41;8.50;94.80
921;DHT22;447;51.332;6.778;2024-03-08T06:56:10;8.50;94.80
921;DHT22;447;51.332;6.778;2024-03-08T06:58:38;8.50;94.80
921;DHT22;447;51.332;6.778;2024-03-08T07:01:06;8.50;94.80
921;DHT22;447;51.332;6.778;2024-03-08T07:03:33;8.50;94.80
921;DHT22;447;51.332;6.778;2024-03-08T07:05:59;8.40;94.80
921;DHT22;447;51.332;6.778;2024-03-08T07:08:28;8.50;94.90
921;DHT22;447;51.332;6.778;2024-03-08T07:10:56;8.40;94.80
921;DHT22;447;51.332;6.778;2024-03-08T07:13:24;8.40;94.80
921;DHT22;447;51.332;6.778;2024-03-08T07:15:51;8.40;94.80
921;DHT22;447;51.332;6.778;2024-03-08T07:18:18;8.40;94.80
921;DHT22;447;51.332;6.778;2024-03-08T07:20:46;8.40;94.90
921;DHT22;447;51.332;6.778;2024-03-08T07:23:14;8.40;94.90
921;DHT22;447;51.332;6.778;2024-03-08T07:26:01;8.40;94.90
921;DHT22;447;51.332;6.778;2024-03-08T07:28:27;8.40;95.00
921;DHT22;447;51.332;6.778;2024-03-08T07:30:53;8.40;95.00
921;DHT22;447;51.332;6.778;2024-03-08T07:33:33;8.40;95.00
921;DHT22;447;51.332;6.778;2024-03-08T07:36:00;8.40;95.10
921;DHT22;447;51.332;6.778;2024-03-08T07:38:29;8.40;95.10
921;DHT22;447;51.332;6.778;2024-03-08T07:40:55;8.40;95.10
921;DHT22;447;51.332;6.778;2024-03-08T07:43:23;8.30;95.20
921;DHT22;447;51.332;6.778;2024-03-08T07:45:49;8.30;95.20
921;DHT22;447;51.332;6.778;2024-03-08T07:48:15;8.30;95.20
921;DHT22;447;51.332;6.778;2024-03-08T07:50:45;8.30;95.20
921;DHT22;447;51.332;6.778;2024-03-08T07:53:13;8.30;95.20
921;DHT22;447;51.332;6.778;2024-03-08T07:55:42;8.30;95.20
921;DHT22;447;51.332;6.778;2024-03-08T07:58:09;8.30;95.20
921;DHT22;447;51.332;6.778;2024-03-08T08:00:37;8.30;95.30
921;DHT22;447;51.332;6.778;2024-03-08T08:03:06;8.30;95.30
921;DHT22;447;51.332;6.778;2024-03-08T08:05:35;8.30;95.30
921;DHT22;447;51.332;6.778;2024-03-08T08:08:10;8.30;95.40
921;DHT22;447;51.332;6.778;2024-03-08T08:10:37;8.30;95.40
921;DHT22;447;51.332;6.778;2024-03-08T08:13:03;8.30;95.40
921;DHT22;447;51.332;6.778;2024-03-08T08:15:32;8.30;95.30
921;DHT22;447;51.332;6.778;2024-03-08T08:18:01;8.30;95.40
921;DHT22;447;51.332;6.778;2024-03-08T08:20:30;8.30;95.70
921;DHT22;447;51.332;6.778;2024-03-08T08:22:59;8.30;95.40
921;DHT22;447;51.332;6.778;2024-03-08T08:25:25;8.30;95.40
921;DHT22;447;51.332;6.778;2024-03-08T08:27:51;8.30;95.40
921;DHT22;447;51.332;6.778;2024-03-08T08:30:22;8.30;95.50
921;DHT22;447;51.332;6.778;2024-03-08T08:32:48;8.30;95.50
921;DHT22;447;51.332;6.778;2024-03-08T08:35:17;8.30;95.50
921;DHT22;447;51.332;6.778;2024-03-08T08:37:45;8.30;95.60
921;DHT22;447;51.332;6.778;2024-03-08T08:40:14;8.30;95.50
921;DHT22;447;51.332;6.778;2024-03-08T08:42:41;8.30;95.40
921;DHT22;447;51.332;6.778;2024-03-08T08:45:10;8.30;95.50
921;DHT22;447;51.332;6.778;2024-03-08T08:47:36;8.30;95.40
921;DHT22;447;51.332;6.778;2024-03-08T08:50:09;8.30;95.40
921;DHT22;447;51.332;6.778;2024-03-08T08:52:39;8.40;95.40
921;DHT22;447;51.332;6.778;2024-03-08T08:55:05;8.40;95.40
921;DHT22;447;51.332;6.778;2024-03-08T08:57:32;8.40;95.40
921;DHT22;447;51.332;6.778;2024-03-08T08:59:59;8.40;95.20
921;DHT22;447;51.332;6.778;2024-03-08T09:02:31;8.40;95.20
921;DHT22;447;51.332;6.778;2024-03-08T09:05:03;8.40;95.20
921;DHT22;447;51.332;6.778;2024-03-08T09:07:29;8.40;95.30
921;DHT22;447;51.332;6.778;2024-03-08T09:09:55;8.40;95.30
921;DHT22;447;51.332;6.778;2024-03-08T09:12:24;8.40;95.40
921;DHT22;447;51.332;6.778;2024-03-08T09:14:50;8.40;95.40
921;DHT22;447;51.332;6.778;2024-03-08T09:17:16;8.50;95.40
921;DHT22;447;51.332;6.778;2024-03-08T09:19:50;8.40;95.30
921;DHT22;447;51.332;6.778;2024-03-08T09:22:16;8.50;95.30
921;DHT22;447;51.332;6.778;2024-03-08T09:24:42;8.50;95.30
921;DHT22;447;51.332;6.778;2024-03-08T09:27:16;8.50;95.20
921;DHT22;447;51.332;6.778;2024-03-08T09:29:42;8.50;95.20
921;DHT22;447;51.332;6.778;2024-03-08T09:32:09;8.50;95.20
921;DHT22;447;51.332;6.778;2024-03-08T09:34:37;8.50;95.20
921;DHT22;447;51.332;6.778;2024-03-08T09:37:03;8.60;95.30
921;DHT22;447;51.332;6.778;2024-03-08T09:39:30;8.60;95.40
921;DHT22;447;51.332;6.778;2024-03-08T09:42:03;8.60;95.40
921;DHT22;447;51.332;6.778;2024-03-08T09:44:33;8.60;95.40
921;DHT22;447;51.332;6.778;2024-03-08T09:47:04;8.60;95.40
921;DHT22;447;51.332;6.778;2024-03-08T09:49:31;8.70;95.40
921;DHT22;447;51.332;6.778;2024-03-08T09:51:57;8.70;95.40
921;DHT22;447;51.332;6.778;2024-03-08T09:54:24;8.70;95.30
921;DHT22;447;51.332;6.778;2024-03-08T09:56:52;8.70;95.40
921;DHT22;447;51.332;6.778;2024-03-08T09:59:19;8.70;95.30
921;DHT22;447;51.332;6.778;2024-03-08T10:01:56;8.80;95.40
921;DHT22;447;51.332;6.778;2024-03-08T10:04:25;8.80;95.30
921;DHT22;447;51.332;6.778;2024-03-08T10:06:58;8.80;95.30
921;DHT22;447;51.332;6.778;2024-03-08T10:09:25;8.80;95.20
921;DHT22;447;51.332;6.778;2024-03-08T10:11:59;8.90;95.20
921;DHT22;447;51.332;6.778;2024-03-08T10:14:28;8.90;95.20
921;DHT22;447;51.332;6.778;2024-03-08T10:16:54;8.90;95.10
921;DHT22;447;51.332;6.778;2024-03-08T10:19:26;9.00;95.10
921;DHT22;447;51.332;6.778;2024-03-08T10:21:55;9.00;95.10
921;DHT22;447;51.332;6.778;2024-03-08T10:24:27;9.00;95.00
921;DHT22;447;51.332;6.778;2024-03-08T10:26:58;9.00;95.00
921;DHT22;447;51.332;6.778;2024-03-08T10:29:24;9.00;94.90
921;DHT22;447;51.332;6.778;2024-03-08T10:31:52;9.10;95.00
921;DHT22;447;51.332;6.778;2024-03-08T10:34:21;9.10;95.00
921;DHT22;447;51.332;6.778;2024-03-08T10:36:50;9.10;95.00
921;DHT22;447;51.332;6.778;2024-03-08T10:39:24;9.20;95.00
921;DHT22;447;51.332;6.778;2024-03-08T10:41:58;9.20;94.90
921;DHT22;447;51.332;6.778;2024-03-08T10:44:39;9.20;94.80
921;DHT22;447;51.332;6.778;2024-03-08T10:47:17;9.20;94.70
921;DHT22;447;51.332;6.778;2024-03-08T10:49:54;9.20;94.70
921;DHT22;447;51.332;6.778;2024-03-08T10:52:23;9.30;94.80
921;DHT22;447;51.332;6.778;2024-03-08T10:54:52;9.30;94.80
921;DHT22;447;51.332;6.778;2024-03-08T10:57:21;9.30;94.70
921;DHT22;447;51.332;6.778;2024-03-08T10:59:50;9.40;94.70
921;DHT22;447;51.332;6.778;2024-03-08T11:02:19;9.40;94.70
921;DHT22;447;51.332;6.778;2024-03-08T11:04:49;9.40;94.60
921;DHT22;447;51.332;6.778;2024-03-08T11:07:20;9.40;94.60
921;DHT22;447;51.332;6.778;2024-03-08T11:09:51;9.40;94.60
921;DHT22;447;51.332;6.778;2024-03-08T11:12:23;9.50;94.60
921;DHT22;447;51.332;6.778;2024-03-08T11:14:59;9.50;94.40
921;DHT22;447;51.332;6.778;2024-03-08T11:20:00;9.60;94.30
921;DHT22;447;51.332;6.778;2024-03-08T11:22:29;9.60;94.20
921;DHT22;447;51.332;6.778;2024-03-08T11:25:04;9.60;94.30
921;DHT22;447;51.332;6.778;2024-03-08T11:27:36;9.60;94.30
921;DHT22;447;51.332;6.778;2024-03-08T11:30:08;9.60;94.30
921;DHT22;447;51.332;6.778;2024-03-08T11:32:38;9.70;94.30
921;DHT22;447;51.332;6.778;2024-03-08T11:35:08;9.70;94.20
921;DHT22;447;51.332;6.778;2024-03-08T11:37:46;9.70;94.10
921;DHT22;447;51.332;6.778;2024-03-08T11:40:16;9.70;94.10
921;DHT22;447;51.332;6.778;2024-03-08T11:42:49;9.80;94.00
921;DHT22;447;51.332;6.778;2024-03-08T11:45:18;9.80;93.90
921;DHT22;447;51.332;6.778;2024-03-08T11:47:49;9.80;93.80
921;DHT22;447;51.332;6.778;2024-03-08T11:50:21;9.80;93.60
921;DHT22;447;51.332;6.778;2024-03-08T11:52:49;9.80;93.70
921;DHT22;447;51.332;6.778;2024-03-08T11:55:18;9.90;93.40
921;DHT22;447;51.332;6.778;2024-03-08T11:57:45;9.90;93.40
921;DHT22;447;51.332;6.778;2024-03-08T12:00:21;9.90;93.20
921;DHT22;447;51.332;6.778;2024-03-08T12:03:04;9.90;93.00
921;DHT22;447;51.332;6.778;2024-03-08T12:05:31;9.90;93.40
921;DHT22;447;51.332;6.778;2024-03-08T12:08:00;10.00;92.50
921;DHT22;447;51.332;6.778;2024-03-08T12:10:26;10.00;92.40
921;DHT22;447;51.332;6.778;2024-03-08T12:12:57;10.00;92.50
921;DHT22;447;51.332;6.778;2024-03-08T12:15:28;10.00;92.30
921;DHT22;447;51.332;6.778;2024-03-08T12:17:58;10.00;92.30
921;DHT22;447;51.332;6.778;2024-03-08T12:20:28;10.10;92.50
921;DHT22;447;51.332;6.778;2024-03-08T12:23:00;10.10;92.50
921;DHT22;447;51.332;6.778;2024-03-08T12:25:34;10.10;89.00
921;DHT22;447;51.332;6.778;2024-03-08T12:28:11;10.10;81.70
921;DHT22;447;51.332;6.778;2024-03-08T12:30:50;10.20;80.90
921;DHT22;447;51.332;6.778;2024-03-08T12:33:25;10.30;80.90
921;DHT22;447;51.332;6.778;2024-03-08T12:35:52;10.40;81.10
921;DHT22;447;51.332;6.778;2024-03-08T12:38:22;10.50;79.50
921;DHT22;447;51.332;6.778;2024-03-08T12:40:55;10.60;79.40
921;DHT22;447;51.332;6.778;2024-03-08T12:43:24;10.80;78.50
921;DHT22;447;51.332;6.778;2024-03-08T12:45:50;10.90;77.90
921;DHT22;447;51.332;6.778;2024-03-08T12:48:19;11.00;78.70
921;DHT22;447;51.332;6.778;2024-03-08T12:50:46;11.00;78.00
921;DHT22;447;51.332;6.778;2024-03-08T12:53:14;11.00;77.20
921;DHT22;447;51.332;6.778;2024-03-08T12:55:42;11.10;76.80
921;DHT22;447;51.332;6.778;2024-03-08T12:58:12;11.20;75.50
921;DHT22;447;51.332;6.778;2024-03-08T13:00:38;11.30;75.30
921;DHT22;447;51.332;6.778;2024-03-08T13:03:08;11.30;75.00
921;DHT22;447;51.332;6.778;2024-03-08T13:05:40;11.40;74.70
921;DHT22;447;51.332;6.778;2024-03-08T13:08:08;11.40;73.60
921;DHT22;447;51.332;6.778;2024-03-08T13:10:41;11.40;72.10
921;DHT22;447;51.332;6.778;2024-03-08T13:13:12;11.50;72.60
921;DHT22;447;51.332;6.778;2024-03-08T13:15:42;11.50;73.30
921;DHT22;447;51.332;6.778;2024-03-08T13:18:08;11.50;72.50
921;DHT22;447;51.332;6.778;2024-03-08T13:20:37;11.60;72.00
921;DHT22;447;51.332;6.778;2024-03-08T13:23:04;11.70;72.00
921;DHT22;447;51.332;6.778;2024-03-08T13:25:31;11.70;72.00
921;DHT22;447;51.332;6.778;2024-03-08T13:28:04;11.70;71.50
921;DHT22;447;51.332;6.778;2024-03-08T13:30:35;11.80;71.70
921;DHT22;447;51.332;6.778;2024-03-08T13:33:01;11.80;71.40
921;DHT22;447;51.332;6.778;2024-03-08T13:35:31;11.80;69.80
921;DHT22;447;51.332;6.778;2024-03-08T13:37:58;11.80;69.30
921;DHT22;447;51.332;6.778;2024-03-08T13:40:24;11.80;70.00
921;DHT22;447;51.332;6.778;2024-03-08T13:42:50;11.90;70.40
921;DHT22;447;51.332;6.778;2024-03-08T13:45:16;11.90;69.80
921;DHT22;447;51.332;6.778;2024-03-08T13:47:50;12.00;69.50
921;DHT22;447;51.332;6.778;2024-03-08T13:50:21;12.00;69.50
921;DHT22;447;51.332;6.778;2024-03-08T13:52:53;12.10;68.80
921;DHT22;447;51.332;6.778;2024-03-08T13:55:23;12.10;68.40
921;DHT22;447;51.332;6.778;2024-03-08T13:57:53;12.10;68.00
921;DHT22;447;51.332;6.778;2024-03-08T14:00:21;12.10;67.90
921;DHT22;447;51.332;6.778;2024-03-08T14:02:54;12.10;67.50
921;DHT22;447;51.332;6.778;2024-03-08T14:05:22;12.20;67.90
921;DHT22;447;51.332;6.778;2024-03-08T14:07:51;12.30;68.40
921;DHT22;447;51.332;6.778;2024-03-08T14:10:20;12.30;68.00
921;DHT22;447;51.332;6.778;2024-03-08T14:12:50;12.30;66.70
921;DHT22;447;51.332;6.778;2024-03-08T14:15:17;12.30;67.30
921;DHT22;447;51.332;6.778;2024-03-08T14:17:51;12.30;66.50
921;DHT22;447;51.332;6.778;2024-03-08T14:20:17;12.30;66.30
921;DHT22;447;51.332;6.778;2024-03-08T14:22:46;12.40;77.10
921;DHT22;447;51.332;6.778;2024-03-08T14:25:12;12.30;76.50
921;DHT22;447;51.332;6.778;2024-03-08T14:27:45;12.40;76.20
921;DHT22;447;51.332;6.778;2024-03-08T14:30:12;12.50;75.80
921;DHT22;447;51.332;6.778;2024-03-08T14:32:40;12.50;75.70
921;DHT22;447;51.332;6.778;2024-03-08T14:35:07;12.00;74.40
921;DHT22;447;51.332;6.778;2024-03-08T14:37:34;12.40;75.00
921;DHT22;447;51.332;6.778;2024-03-08T14:40:02;12.40;74.90
921;DHT22;447;51.332;6.778;2024-03-08T14:42:31;12.50;74.30
921;DHT22;447;51.332;6.778;2024-03-08T14:44:57;12.50;73.90
921;DHT22;447;51.332;6.778;2024-03-08T14:47:24;12.40;73.60
921;DHT22;447;51.332;6.778;2024-03-08T14:49:54;12.50;74.80
921;DHT22;447;51.332;6.778;2024-03-08T14:52:23;12.50;75.10
921;DHT22;447;51.332;6.778;2024-03-08T14:54:57;12.50;75.30
921;DHT22;447;51.332;6.778;2024-03-08T14:57:24;12.60;75.30
921;DHT22;447;51.332;6.778;2024-03-08T14:59:51;12.60;75.70
921;DHT22;447;51.332;6.778;2024-03-08T15:02:17;12.60;75.20
921;DHT22;447;51.332;6.778;2024-03-08T15:04:49;12.60;74.90
921;DHT22;447;51.332;6.778;2024-03-08T15:07:23;12.60;75.30
921;DHT22;447;51.332;6.778;2024-03-08T15:09:52;12.60;74.40
921;DHT22;447;51.332;6.778;2024-03-08T15:12:18;12.70;74.20
921;DHT22;447;51.332;6.778;2024-03-08T15:14:47;12.70;73.90
921;DHT22;447;51.332;6.778;2024-03-08T15:17:19;12.60;73.80
921;DHT22;447;51.332;6.778;2024-03-08T15:19:48;12.60;73.60
921;DHT22;447;51.332;6.778;2024-03-08T15:22:15;12.50;73.90
921;DHT22;447;51.332;6.778;2024-03-08T15:24:44;12.60;74.60
921;DHT22;447;51.332;6.778;2024-03-08T15:27:16;12.60;73.40
921;DHT22;447;51.332;6.778;2024-03-08T15:29:42;12.60;72.90
921;DHT22;447;51.332;6.778;2024-03-08T15:32:13;12.50;72.00
921;DHT22;447;51.332;6.778;2024-03-08T15:34:46;12.80;71.10
921;DHT22;447;51.332;6.778;2024-03-08T15:37:12;12.40;71.20
921;DHT22;447;51.332;6.778;2024-03-08T15:39:45;12.30;71.20
921;DHT22;447;51.332;6.778;2024-03-08T15:42:14;12.30;71.90
921;DHT22;447;51.332;6.778;2024-03-08T15:44:41;12.20;71.70
921;DHT22;447;51.332;6.778;2024-03-08T15:47:34;12.20;71.70
921;DHT22;447;51.332;6.778;2024-03-08T15:50:02;12.20;72.70
921;DHT22;447;51.332;6.778;2024-03-08T15:52:37;12.30;73.80
921;DHT22;447;51.332;6.778;2024-03-08T15:55:07;12.20;74.20
921;DHT22;447;51.332;6.778;2024-03-08T15:57:33;12.20;72.20
921;DHT22;447;51.332;6.778;2024-03-08T16:00:02;12.20;72.60
921;DHT22;447;51.332;6.778;2024-03-08T16:02:41;12.10;73.00
921;DHT22;447;51.332;6.778;2024-03-08T16:05:07;12.00;74.50
921;DHT22;447;51.332;6.778;2024-03-08T16:07:33;12.00;75.60
921;DHT22;447;51.332;6.778;2024-03-08T16:09:59;11.90;75.50
921;DHT22;447;51.332;6.778;2024-03-08T16:12:35;12.00;76.50
921;DHT22;447;51.332;6.778;2024-03-08T16:15:02;12.00;76.60
921;DHT22;447;51.332;6.778;2024-03-08T16:17:33;12.00;76.40
921;DHT22;447;51.332;6.778;2024-03-08T16:20:01;12.10;75.60
921;DHT22;447;51.332;6.778;2024-03-08T16:22:30;11.90;75.70
921;DHT22;447;51.332;6.778;2024-03-08T16:24:59;11.80;75.20
921;DHT22;447;51.332;6.778;2024-03-08T16:27:25;11.80;75.40
921;DHT22;447;51.332;6.778;2024-03-08T16:29:53;11.80;75.40
921;DHT22;447;51.332;6.778;2024-03-08T16:32:22;11.90;75.00
921;DHT22;447;51.332;6.778;2024-03-08T16:34:47;12.00;75.10
921;DHT22;447;51.332;6.778;2024-03-08T16:37:13;11.90;74.70
921;DHT22;447;51.332;6.778;2024-03-08T16:39:39;12.00;74.30
921;DHT22;447;51.332;6.778;2024-03-08T16:42:06;12.00;74.80
921;DHT22;447;51.332;6.778;2024-03-08T16:44:33;12.00;73.80
921;DHT22;447;51.332;6.778;2024-03-08T16:47:00;12.10;74.30
921;DHT22;447;51.332;6.778;2024-03-08T16:49:28;12.10;74.30
921;DHT22;447;51.332;6.778;2024-03-08T16:51:56;12.00;74.40
921;DHT22;447;51.332;6.778;2024-03-08T16:54:22;11.90;74.40
921;DHT22;447;51.332;6.778;2024-03-08T16:56:50;12.00;75.00
921;DHT22;447;51.332;6.778;2024-03-08T16:59:17;12.00;75.30